Terminal Aerodrome Forecast
Issued by NWS

Home | Current Version | Previous Version | Text Only | Print | Product List | Glossary On
Versions: 1 2 3 4 5 6 7 8 9 10 11 12 13
000
FTUS42 TJSJ 032325
TAFJPS
TAF
TJPS 032325Z 0400/0424 14015G22KT P6SM VCSH FEW030
     FM041330 14020KT P6SM SCT025 SCT040
     FM042330 07007KT P6SM FEW030
      AMD NOT SKED TIL 040300=

USA.gov is the U.S. government's official web portal to all federal, state and local government web resources and services.